sensor_id;sensor_type;location;lat;lon;timestamp;temperature;humidity
7129;DHT22;3606;52.930;8.644;2022-12-18T00:01:32;-7.70;1.00
7129;DHT22;3606;52.930;8.644;2022-12-18T00:03:59;-7.70;1.00
7129;DHT22;3606;52.930;8.644;2022-12-18T00:06:27;-7.70;1.00
7129;DHT22;3606;52.930;8.644;2022-12-18T00:08:55;-7.70;1.00
7129;DHT22;3606;52.930;8.644;2022-12-18T00:11:23;-7.60;1.00
7129;DHT22;3606;52.930;8.644;2022-12-18T00:13:50;-7.70;1.00
7129;DHT22;3606;52.930;8.644;2022-12-18T00:16:20;-7.70;1.00
7129;DHT22;3606;52.930;8.644;2022-12-18T00:18:47;-7.80;1.00
7129;DHT22;3606;52.930;8.644;2022-12-18T00:21:13;-7.80;1.00
7129;DHT22;3606;52.930;8.644;2022-12-18T00:23:40;-7.90;1.00
7129;DHT22;3606;52.930;8.644;2022-12-18T00:26:10;-7.80;1.00
7129;DHT22;3606;52.930;8.644;2022-12-18T00:28:36;-7.90;1.00
7129;DHT22;3606;52.930;8.644;2022-12-18T00:31:03;-7.90;1.00
7129;DHT22;3606;52.930;8.644;2022-12-18T00:33:29;-8.00;1.00
7129;DHT22;3606;52.930;8.644;2022-12-18T00:35:54;-8.00;1.00
7129;DHT22;3606;52.930;8.644;2022-12-18T00:38:25;-8.10;1.00
7129;DHT22;3606;52.930;8.644;2022-12-18T00:40:50;-8.20;1.00
7129;DHT22;3606;52.930;8.644;2022-12-18T00:43:16;-8.20;1.00
7129;DHT22;3606;52.930;8.644;2022-12-18T00:45:41;-8.20;1.00
7129;DHT22;3606;52.930;8.644;2022-12-18T00:48:07;-8.10;1.00
7129;DHT22;3606;52.930;8.644;2022-12-18T00:50:32;-8.20;1.00
7129;DHT22;3606;52.930;8.644;2022-12-18T00:52:58;-8.20;1.00
7129;DHT22;3606;52.930;8.644;2022-12-18T00:55:23;-8.20;1.00
7129;DHT22;3606;52.930;8.644;2022-12-18T00:57:51;-8.20;1.00
7129;DHT22;3606;52.930;8.644;2022-12-18T01:00:17;-8.20;1.00
7129;DHT22;3606;52.930;8.644;2022-12-18T01:02:43;-8.10;1.00
7129;DHT22;3606;52.930;8.644;2022-12-18T01:05:12;-8.10;1.00
7129;DHT22;3606;52.930;8.644;2022-12-18T01:07:38;-8.10;1.00
7129;DHT22;3606;52.930;8.644;2022-12-18T01:10:04;-8.00;1.00
7129;DHT22;3606;52.930;8.644;2022-12-18T01:12:30;-8.10;1.00
7129;DHT22;3606;52.930;8.644;2022-12-18T01:14:56;-8.10;1.00
7129;DHT22;3606;52.930;8.644;2022-12-18T01:17:22;-8.10;1.00
7129;DHT22;3606;52.930;8.644;2022-12-18T01:19:48;-8.00;1.00
7129;DHT22;3606;52.930;8.644;2022-12-18T01:22:14;-8.00;1.00
7129;DHT22;3606;52.930;8.644;2022-12-18T01:24:39;-8.00;1.00
7129;DHT22;3606;52.930;8.644;2022-12-18T01:27:05;-8.00;1.00
7129;DHT22;3606;52.930;8.644;2022-12-18T01:29:31;-8.00;1.00
7129;DHT22;3606;52.930;8.644;2022-12-18T01:31:56;-8.10;1.00
7129;DHT22;3606;52.930;8.644;2022-12-18T01:34:23;-8.20;1.00
7129;DHT22;3606;52.930;8.644;2022-12-18T01:36:48;-8.20;1.00
7129;DHT22;3606;52.930;8.644;2022-12-18T01:39:15;-8.20;1.00
7129;DHT22;3606;52.930;8.644;2022-12-18T01:41:41;-8.10;1.00
7129;DHT22;3606;52.930;8.644;2022-12-18T01:48:04;-8.10;1.00
7129;DHT22;3606;52.930;8.644;2022-12-18T01:50:18;-8.20;1.00
7129;DHT22;3606;52.930;8.644;2022-12-18T01:52:50;-8.30;1.00
7129;DHT22;3606;52.930;8.644;2022-12-18T01:55:20;-8.40;1.00
7129;DHT22;3606;52.930;8.644;2022-12-18T01:57:46;-8.50;1.00
7129;DHT22;3606;52.930;8.644;2022-12-18T02:00:17;-8.50;1.00
7129;DHT22;3606;52.930;8.644;2022-12-18T02:02:43;-8.50;1.00
7129;DHT22;3606;52.930;8.644;2022-12-18T02:05:11;-8.50;1.00
7129;DHT22;3606;52.930;8.644;2022-12-18T02:08:03;-8.60;1.00
7129;DHT22;3606;52.930;8.644;2022-12-18T02:10:46;-8.60;1.00
7129;DHT22;3606;52.930;8.644;2022-12-18T02:13:15;-8.70;1.00
7129;DHT22;3606;52.930;8.644;2022-12-18T02:15:51;-8.80;1.00
7129;DHT22;3606;52.930;8.644;2022-12-18T02:18:27;-8.90;1.00
7129;DHT22;3606;52.930;8.644;2022-12-18T02:21:12;-8.90;1.00
7129;DHT22;3606;52.930;8.644;2022-12-18T02:24:20;-9.00;1.00
7129;DHT22;3606;52.930;8.644;2022-12-18T02:26:57;-9.00;1.00
7129;DHT22;3606;52.930;8.644;2022-12-18T02:29:31;-9.10;1.00
7129;DHT22;3606;52.930;8.644;2022-12-18T02:31:59;-9.10;1.00
7129;DHT22;3606;52.930;8.644;2022-12-18T02:34:29;-9.00;1.00
7129;DHT22;3606;52.930;8.644;2022-12-18T02:36:57;-8.90;1.00
7129;DHT22;3606;52.930;8.644;2022-12-18T02:39:25;-8.90;1.00
7129;DHT22;3606;52.930;8.644;2022-12-18T02:41:52;-8.90;1.00
7129;DHT22;3606;52.930;8.644;2022-12-18T02:44:17;-8.90;1.00
7129;DHT22;3606;52.930;8.644;2022-12-18T02:46:46;-8.80;1.00
7129;DHT22;3606;52.930;8.644;2022-12-18T02:49:36;-8.80;1.00
7129;DHT22;3606;52.930;8.644;2022-12-18T02:54:39;-8.80;1.00
7129;DHT22;3606;52.930;8.644;2022-12-18T02:59:49;-8.70;1.00
7129;DHT22;3606;52.930;8.644;2022-12-18T03:02:26;-8.70;1.00
7129;DHT22;3606;52.930;8.644;2022-12-18T03:05:23;-8.80;1.00
7129;DHT22;3606;52.930;8.644;2022-12-18T03:08:06;-8.90;1.00
7129;DHT22;3606;52.930;8.644;2022-12-18T03:10:38;-9.00;1.00
7129;DHT22;3606;52.930;8.644;2022-12-18T03:13:09;-9.00;1.00
7129;DHT22;3606;52.930;8.644;2022-12-18T03:15:49;-9.00;1.00
7129;DHT22;3606;52.930;8.644;2022-12-18T03:18:23;-8.90;1.00
7129;DHT22;3606;52.930;8.644;2022-12-18T03:20:51;-8.90;1.00
7129;DHT22;3606;52.930;8.644;2022-12-18T03:23:21;-8.80;1.00
7129;DHT22;3606;52.930;8.644;2022-12-18T03:25:49;-8.70;1.00
7129;DHT22;3606;52.930;8.644;2022-12-18T03:28:20;-8.60;1.00
7129;DHT22;3606;52.930;8.644;2022-12-18T03:30:49;-8.70;1.00
7129;DHT22;3606;52.930;8.644;2022-12-18T03:33:25;-8.80;1.00
7129;DHT22;3606;52.930;8.644;2022-12-18T03:35:52;-8.70;1.00
7129;DHT22;3606;52.930;8.644;2022-12-18T03:38:17;-8.60;1.00
7129;DHT22;3606;52.930;8.644;2022-12-18T03:40:45;-8.70;1.00
7129;DHT22;3606;52.930;8.644;2022-12-18T03:43:29;-8.80;1.00
7129;DHT22;3606;52.930;8.644;2022-12-18T03:46:07;-8.90;1.00
7129;DHT22;3606;52.930;8.644;2022-12-18T03:48:40;-8.90;1.00
7129;DHT22;3606;52.930;8.644;2022-12-18T03:51:17;-8.80;1.00
7129;DHT22;3606;52.930;8.644;2022-12-18T03:56:09;-9.00;1.00
7129;DHT22;3606;52.930;8.644;2022-12-18T03:58:37;-9.10;1.00
7129;DHT22;3606;52.930;8.644;2022-12-18T04:01:06;-9.20;1.00
7129;DHT22;3606;52.930;8.644;2022-12-18T04:03:34;-9.30;1.00
7129;DHT22;3606;52.930;8.644;2022-12-18T04:06:01;-9.50;1.00
7129;DHT22;3606;52.930;8.644;2022-12-18T04:08:28;-9.70;99.90
7129;DHT22;3606;52.930;8.644;2022-12-18T04:10:54;-9.70;99.90
7129;DHT22;3606;52.930;8.644;2022-12-18T04:13:32;-9.80;99.90
7129;DHT22;3606;52.930;8.644;2022-12-18T04:15:58;-9.90;1.00
7129;DHT22;3606;52.930;8.644;2022-12-18T04:18:23;-9.90;1.00
7129;DHT22;3606;52.930;8.644;2022-12-18T04:20:49;-9.90;1.00
7129;DHT22;3606;52.930;8.644;2022-12-18T04:23:15;-10.00;1.00
7129;DHT22;3606;52.930;8.644;2022-12-18T04:25:40;-10.00;1.00
7129;DHT22;3606;52.930;8.644;2022-12-18T04:28:06;-10.10;1.00
7129;DHT22;3606;52.930;8.644;2022-12-18T04:30:32;-10.20;99.90
7129;DHT22;3606;52.930;8.644;2022-12-18T04:32:57;-10.30;99.90
7129;DHT22;3606;52.930;8.644;2022-12-18T04:35:23;-10.40;99.90
7129;DHT22;3606;52.930;8.644;2022-12-18T04:37:48;-10.40;99.90
7129;DHT22;3606;52.930;8.644;2022-12-18T04:40:14;-10.40;99.90
7129;DHT22;3606;52.930;8.644;2022-12-18T04:42:40;-10.40;99.90
7129;DHT22;3606;52.930;8.644;2022-12-18T04:45:06;-10.50;99.90
7129;DHT22;3606;52.930;8.644;2022-12-18T04:47:32;-10.50;99.90
7129;DHT22;3606;52.930;8.644;2022-12-18T04:49:58;-10.40;1.00
7129;DHT22;3606;52.930;8.644;2022-12-18T04:52:23;-10.40;1.00
7129;DHT22;3606;52.930;8.644;2022-12-18T04:54:49;-10.40;99.90
7129;DHT22;3606;52.930;8.644;2022-12-18T04:57:14;-10.30;99.90
7129;DHT22;3606;52.930;8.644;2022-12-18T04:59:40;-10.30;1.00
7129;DHT22;3606;52.930;8.644;2022-12-18T05:02:05;-10.10;1.00
7129;DHT22;3606;52.930;8.644;2022-12-18T05:04:31;-10.10;1.00
7129;DHT22;3606;52.930;8.644;2022-12-18T05:06:57;-10.10;1.00
7129;DHT22;3606;52.930;8.644;2022-12-18T05:09:23;-10.20;99.90
7129;DHT22;3606;52.930;8.644;2022-12-18T05:11:48;-10.10;99.90
7129;DHT22;3606;52.930;8.644;2022-12-18T05:14:14;-10.10;99.90
7129;DHT22;3606;52.930;8.644;2022-12-18T05:16:39;-10.10;99.90
7129;DHT22;3606;52.930;8.644;2022-12-18T05:19:05;-10.10;99.90
7129;DHT22;3606;52.930;8.644;2022-12-18T05:21:33;-10.10;99.90
7129;DHT22;3606;52.930;8.644;2022-12-18T05:23:59;-10.20;99.90
7129;DHT22;3606;52.930;8.644;2022-12-18T05:26:24;-10.30;99.90
7129;DHT22;3606;52.930;8.644;2022-12-18T05:28:50;-10.50;99.90
7129;DHT22;3606;52.930;8.644;2022-12-18T05:31:15;-10.50;99.90
7129;DHT22;3606;52.930;8.644;2022-12-18T05:33:41;-10.60;99.90
7129;DHT22;3606;52.930;8.644;2022-12-18T05:36:08;-10.60;99.90
7129;DHT22;3606;52.930;8.644;2022-12-18T05:38:36;-10.70;99.90
7129;DHT22;3606;52.930;8.644;2022-12-18T05:41:02;-10.80;99.90
7129;DHT22;3606;52.930;8.644;2022-12-18T05:43:29;-10.90;99.90
7129;DHT22;3606;52.930;8.644;2022-12-18T05:45:56;-10.80;99.90
7129;DHT22;3606;52.930;8.644;2022-12-18T05:48:22;-10.80;99.90
7129;DHT22;3606;52.930;8.644;2022-12-18T05:50:49;-10.80;99.90
7129;DHT22;3606;52.930;8.644;2022-12-18T05:53:17;-10.70;99.90
7129;DHT22;3606;52.930;8.644;2022-12-18T05:55:43;-10.70;99.90
7129;DHT22;3606;52.930;8.644;2022-12-18T05:58:10;-10.70;99.90
7129;DHT22;3606;52.930;8.644;2022-12-18T06:00:38;-10.60;99.90
7129;DHT22;3606;52.930;8.644;2022-12-18T06:03:09;-10.70;99.90
7129;DHT22;3606;52.930;8.644;2022-12-18T06:05:37;-10.70;99.90
7129;DHT22;3606;52.930;8.644;2022-12-18T06:08:03;-10.70;99.90
7129;DHT22;3606;52.930;8.644;2022-12-18T06:10:29;-10.80;99.90
7129;DHT22;3606;52.930;8.644;2022-12-18T06:12:54;-10.70;99.90
7129;DHT22;3606;52.930;8.644;2022-12-18T06:15:20;-10.70;99.90
7129;DHT22;3606;52.930;8.644;2022-12-18T06:17:45;-10.80;99.90
7129;DHT22;3606;52.930;8.644;2022-12-18T06:20:11;-10.80;99.90
7129;DHT22;3606;52.930;8.644;2022-12-18T06:22:36;-10.80;99.90
7129;DHT22;3606;52.930;8.644;2022-12-18T06:25:02;-10.80;99.90
7129;DHT22;3606;52.930;8.644;2022-12-18T06:27:28;-10.70;99.90
7129;DHT22;3606;52.930;8.644;2022-12-18T06:29:53;-10.70;99.90
7129;DHT22;3606;52.930;8.644;2022-12-18T06:32:19;-10.70;99.90
7129;DHT22;3606;52.930;8.644;2022-12-18T06:34:45;-10.70;99.90
7129;DHT22;3606;52.930;8.644;2022-12-18T06:37:10;-10.70;99.90
7129;DHT22;3606;52.930;8.644;2022-12-18T06:39:36;-10.70;99.90
7129;DHT22;3606;52.930;8.644;2022-12-18T06:42:01;-10.70;99.90
7129;DHT22;3606;52.930;8.644;2022-12-18T06:44:28;-10.60;99.90
7129;DHT22;3606;52.930;8.644;2022-12-18T06:46:53;-10.60;99.90
7129;DHT22;3606;52.930;8.644;2022-12-18T06:49:19;-10.60;99.90
7129;DHT22;3606;52.930;8.644;2022-12-18T06:51:44;-10.70;99.90
7129;DHT22;3606;52.930;8.644;2022-12-18T06:54:10;-10.60;1.00
7129;DHT22;3606;52.930;8.644;2022-12-18T06:56:35;-10.60;1.00
7129;DHT22;3606;52.930;8.644;2022-12-18T06:59:01;-10.50;99.90
7129;DHT22;3606;52.930;8.644;2022-12-18T07:01:27;-10.60;99.90
7129;DHT22;3606;52.930;8.644;2022-12-18T07:03:54;-10.50;99.90
7129;DHT22;3606;52.930;8.644;2022-12-18T07:06:22;-10.50;99.90
7129;DHT22;3606;52.930;8.644;2022-12-18T07:08:49;-10.50;99.90
7129;DHT22;3606;52.930;8.644;2022-12-18T07:11:15;-10.60;99.90
7129;DHT22;3606;52.930;8.644;2022-12-18T07:13:41;-10.60;99.90
7129;DHT22;3606;52.930;8.644;2022-12-18T07:18:36;-10.50;99.90
7129;DHT22;3606;52.930;8.644;2022-12-18T07:21:10;-10.40;99.90
7129;DHT22;3606;52.930;8.644;2022-12-18T07:23:36;-10.30;99.90
7129;DHT22;3606;52.930;8.644;2022-12-18T07:26:06;-10.40;99.90
7129;DHT22;3606;52.930;8.644;2022-12-18T07:28:33;-10.30;99.90
7129;DHT22;3606;52.930;8.644;2022-12-18T07:31:08;-10.30;99.90
7129;DHT22;3606;52.930;8.644;2022-12-18T07:33:34;-10.40;99.90
7129;DHT22;3606;52.930;8.644;2022-12-18T07:36:05;-10.30;99.90
7129;DHT22;3606;52.930;8.644;2022-12-18T07:38:32;-10.20;99.90
7129;DHT22;3606;52.930;8.644;2022-12-18T07:41:10;-10.20;99.90
7129;DHT22;3606;52.930;8.644;2022-12-18T07:43:36;-10.10;99.90
7129;DHT22;3606;52.930;8.644;2022-12-18T07:46:02;-10.00;99.90
7129;DHT22;3606;52.930;8.644;2022-12-18T07:48:29;-10.00;99.90
7129;DHT22;3606;52.930;8.644;2022-12-18T07:50:59;-9.90;99.90
7129;DHT22;3606;52.930;8.644;2022-12-18T07:53:25;-9.90;99.90
7129;DHT22;3606;52.930;8.644;2022-12-18T07:56:02;-9.80;99.90
7129;DHT22;3606;52.930;8.644;2022-12-18T07:58:29;-9.70;99.90
7129;DHT22;3606;52.930;8.644;2022-12-18T08:01:03;-9.50;99.90
7129;DHT22;3606;52.930;8.644;2022-12-18T08:03:28;-9.20;1.00
7129;DHT22;3606;52.930;8.644;2022-12-18T08:06:01;-8.80;1.00
7129;DHT22;3606;52.930;8.644;2022-12-18T08:08:27;-8.00;1.00
7129;DHT22;3606;52.930;8.644;2022-12-18T08:10:53;-7.10;1.00
7129;DHT22;3606;52.930;8.644;2022-12-18T08:13:19;-6.20;1.00
7129;DHT22;3606;52.930;8.644;2022-12-18T08:15:44;-5.60;1.00
7129;DHT22;3606;52.930;8.644;2022-12-18T08:18:10;-5.10;99.90
7129;DHT22;3606;52.930;8.644;2022-12-18T08:20:35;-4.70;99.90
7129;DHT22;3606;52.930;8.644;2022-12-18T08:23:01;-4.30;92.00
7129;DHT22;3606;52.930;8.644;2022-12-18T08:25:26;-3.80;1.00
7129;DHT22;3606;52.930;8.644;2022-12-18T08:27:52;-3.40;99.90
7129;DHT22;3606;52.930;8.644;2022-12-18T08:30:18;-3.70;99.90
7129;DHT22;3606;52.930;8.644;2022-12-18T08:32:43;-4.00;1.00
7129;DHT22;3606;52.930;8.644;2022-12-18T08:35:09;-3.70;1.00
7129;DHT22;3606;52.930;8.644;2022-12-18T08:37:37;-3.20;94.20
7129;DHT22;3606;52.930;8.644;2022-12-18T08:40:03;-2.70;99.90
7129;DHT22;3606;52.930;8.644;2022-12-18T08:42:28;-2.00;99.90
7129;DHT22;3606;52.930;8.644;2022-12-18T08:45:26;-2.00;1.00
7129;DHT22;3606;52.930;8.644;2022-12-18T08:47:52;-3.30;99.90
7129;DHT22;3606;52.930;8.644;2022-12-18T08:50:17;-4.30;99.90
7129;DHT22;3606;52.930;8.644;2022-12-18T08:52:43;-5.00;1.00
7129;DHT22;3606;52.930;8.644;2022-12-18T08:55:09;-5.50;1.00
7129;DHT22;3606;52.930;8.644;2022-12-18T08:57:34;-5.80;1.00
7129;DHT22;3606;52.930;8.644;2022-12-18T09:00:00;-5.90;1.00
7129;DHT22;3606;52.930;8.644;2022-12-18T09:02:26;-6.00;1.00
7129;DHT22;3606;52.930;8.644;2022-12-18T09:04:51;-5.90;99.90
7129;DHT22;3606;52.930;8.644;2022-12-18T09:07:17;-5.90;99.50
7129;DHT22;3606;52.930;8.644;2022-12-18T09:09:42;-5.80;1.00
7129;DHT22;3606;52.930;8.644;2022-12-18T09:12:08;-5.70;99.90
7129;DHT22;3606;52.930;8.644;2022-12-18T09:14:34;-5.60;1.00
7129;DHT22;3606;52.930;8.644;2022-12-18T09:16:59;-5.40;1.00
7129;DHT22;3606;52.930;8.644;2022-12-18T09:19:25;-5.30;1.00
7129;DHT22;3606;52.930;8.644;2022-12-18T09:21:50;-5.10;99.90
7129;DHT22;3606;52.930;8.644;2022-12-18T09:24:16;-5.00;1.00
7129;DHT22;3606;52.930;8.644;2022-12-18T09:26:42;-4.90;1.00
7129;DHT22;3606;52.930;8.644;2022-12-18T09:29:08;-4.70;1.00
7129;DHT22;3606;52.930;8.644;2022-12-18T09:31:35;-4.60;99.90
7129;DHT22;3606;52.930;8.644;2022-12-18T09:34:00;-4.50;1.00
7129;DHT22;3606;52.930;8.644;2022-12-18T09:36:26;-4.40;81.20
7129;DHT22;3606;52.930;8.644;2022-12-18T09:38:51;-4.30;99.90
7129;DHT22;3606;52.930;8.644;2022-12-18T09:41:46;-4.30;1.00
7129;DHT22;3606;52.930;8.644;2022-12-18T09:47:10;-4.20;99.90
7129;DHT22;3606;52.930;8.644;2022-12-18T09:49:49;-4.10;1.00
7129;DHT22;3606;52.930;8.644;2022-12-18T09:55:05;-3.90;1.00
7129;DHT22;3606;52.930;8.644;2022-12-18T09:57:35;-3.70;1.00
7129;DHT22;3606;52.930;8.644;2022-12-18T10:00:17;-3.70;97.80
7129;DHT22;3606;52.930;8.644;2022-12-18T10:02:43;-3.50;1.00
7129;DHT22;3606;52.930;8.644;2022-12-18T10:05:17;-3.20;99.90
7129;DHT22;3606;52.930;8.644;2022-12-18T10:07:53;-2.80;1.00
7129;DHT22;3606;52.930;8.644;2022-12-18T10:15:51;-1.10;99.90
7129;DHT22;3606;52.930;8.644;2022-12-18T10:21:19;-1.00;99.90
7129;DHT22;3606;52.930;8.644;2022-12-18T10:26:24;-1.50;1.00
7129;DHT22;3606;52.930;8.644;2022-12-18T10:28:51;-1.70;99.90
7129;DHT22;3606;52.930;8.644;2022-12-18T10:31:21;-1.90;1.00
7129;DHT22;3606;52.930;8.644;2022-12-18T10:33:48;-2.20;1.00
7129;DHT22;3606;52.930;8.644;2022-12-18T10:36:14;-2.20;1.00
7129;DHT22;3606;52.930;8.644;2022-12-18T10:38:39;-2.30;99.90
7129;DHT22;3606;52.930;8.644;2022-12-18T10:43:44;-2.30;99.90
7129;DHT22;3606;52.930;8.644;2022-12-18T10:51:34;-2.50;99.90
7129;DHT22;3606;52.930;8.644;2022-12-18T10:54:15;-2.50;99.90
7129;DHT22;3606;52.930;8.644;2022-12-18T10:56:42;-2.40;99.90
7129;DHT22;3606;52.930;8.644;2022-12-18T10:59:10;-2.30;1.00
7129;DHT22;3606;52.930;8.644;2022-12-18T11:01:57;-2.20;1.00
7129;DHT22;3606;52.930;8.644;2022-12-18T11:04:28;-2.10;1.00
7129;DHT22;3606;52.930;8.644;2022-12-18T11:07:03;-1.90;99.90
7129;DHT22;3606;52.930;8.644;2022-12-18T11:09:34;-1.80;1.00
7129;DHT22;3606;52.930;8.644;2022-12-18T11:12:23;-1.80;1.00
7129;DHT22;3606;52.930;8.644;2022-12-18T11:14:52;-1.90;1.00
7129;DHT22;3606;52.930;8.644;2022-12-18T11:19:58;-2.00;1.00
7129;DHT22;3606;52.930;8.644;2022-12-18T11:22:29;-1.90;99.90
7129;DHT22;3606;52.930;8.644;2022-12-18T11:27:38;-1.80;1.00
7129;DHT22;3606;52.930;8.644;2022-12-18T11:32:43;-1.80;99.90
7129;DHT22;3606;52.930;8.644;2022-12-18T11:35:17;-1.90;99.90
7129;DHT22;3606;52.930;8.644;2022-12-18T11:37:49;-1.90;1.00
7129;DHT22;3606;52.930;8.644;2022-12-18T11:40:19;-1.90;1.00
7129;DHT22;3606;52.930;8.644;2022-12-18T11:45:30;-1.90;1.00
7129;DHT22;3606;52.930;8.644;2022-12-18T11:48:14;-2.00;1.00
7129;DHT22;3606;52.930;8.644;2022-12-18T11:50:47;-2.00;99.90
7129;DHT22;3606;52.930;8.644;2022-12-18T11:53:14;-2.00;98.50
7129;DHT22;3606;52.930;8.644;2022-12-18T11:59:00;-2.00;99.90
7129;DHT22;3606;52.930;8.644;2022-12-18T12:01:42;-2.00;81.60
7129;DHT22;3606;52.930;8.644;2022-12-18T12:04:16;-2.00;99.90
7129;DHT22;3606;52.930;8.644;2022-12-18T12:07:00;-2.00;99.90
7129;DHT22;3606;52.930;8.644;2022-12-18T12:17:45;-1.90;1.00
7129;DHT22;3606;52.930;8.644;2022-12-18T12:23:49;-1.80;99.90
7129;DHT22;3606;52.930;8.644;2022-12-18T12:28:52;-1.80;99.90
7129;DHT22;3606;52.930;8.644;2022-12-18T12:34:23;-1.90;1.00
7129;DHT22;3606;52.930;8.644;2022-12-18T12:39:40;-2.10;1.00
7129;DHT22;3606;52.930;8.644;2022-12-18T12:42:35;-2.10;1.00
7129;DHT22;3606;52.930;8.644;2022-12-18T12:45:27;-2.20;99.90
7129;DHT22;3606;52.930;8.644;2022-12-18T12:47:54;-2.20;99.90
7129;DHT22;3606;52.930;8.644;2022-12-18T12:50:21;-2.20;1.00
7129;DHT22;3606;52.930;8.644;2022-12-18T12:52:53;-2.20;1.00
7129;DHT22;3606;52.930;8.644;2022-12-18T12:55:28;-2.20;99.90
7129;DHT22;3606;52.930;8.644;2022-12-18T12:58:26;-2.30;99.90
7129;DHT22;3606;52.930;8.644;2022-12-18T13:03:51;-2.30;99.90
7129;DHT22;3606;52.930;8.644;2022-12-18T13:08:57;-2.30;1.00
7129;DHT22;3606;52.930;8.644;2022-12-18T13:11:40;-2.30;99.90
7129;DHT22;3606;52.930;8.644;2022-12-18T13:14:31;-2.30;99.90
7129;DHT22;3606;52.930;8.644;2022-12-18T13:20:14;-2.30;1.00
7129;DHT22;3606;52.930;8.644;2022-12-18T13:22:45;-2.30;99.90
7129;DHT22;3606;52.930;8.644;2022-12-18T13:38:36;-2.30;1.00
7129;DHT22;3606;52.930;8.644;2022-12-18T13:41:26;-2.30;99.90
7129;DHT22;3606;52.930;8.644;2022-12-18T13:43:56;-2.30;1.00
7129;DHT22;3606;52.930;8.644;2022-12-18T13:46:47;-2.30;1.00
7129;DHT22;3606;52.930;8.644;2022-12-18T13:51:44;-2.30;1.00
7129;DHT22;3606;52.930;8.644;2022-12-18T13:54:36;-2.30;99.90
7129;DHT22;3606;52.930;8.644;2022-12-18T13:57:03;-2.30;1.00
7129;DHT22;3606;52.930;8.644;2022-12-18T13:59:38;-2.30;1.00
7129;DHT22;3606;52.930;8.644;2022-12-18T14:02:24;-2.30;1.00
7129;DHT22;3606;52.930;8.644;2022-12-18T14:04:50;-2.40;39.40
7129;DHT22;3606;52.930;8.644;2022-12-18T14:07:27;-2.40;1.00
7129;DHT22;3606;52.930;8.644;2022-12-18T14:09:54;-2.40;1.00
7129;DHT22;3606;52.930;8.644;2022-12-18T14:12:31;-2.40;1.00
7129;DHT22;3606;52.930;8.644;2022-12-18T14:18:01;-2.40;1.00
7129;DHT22;3606;52.930;8.644;2022-12-18T14:20:32;-2.40;1.00
7129;DHT22;3606;52.930;8.644;2022-12-18T14:22:58;-2.30;1.00
7129;DHT22;3606;52.930;8.644;2022-12-18T14:25:29;-2.30;99.90
7129;DHT22;3606;52.930;8.644;2022-12-18T14:28:14;-2.30;99.90
7129;DHT22;3606;52.930;8.644;2022-12-18T14:30:45;-2.30;99.90
7129;DHT22;3606;52.930;8.644;2022-12-18T14:35:42;-2.30;1.00
7129;DHT22;3606;52.930;8.644;2022-12-18T14:40:45;-2.40;1.00
7129;DHT22;3606;52.930;8.644;2022-12-18T14:43:11;-2.40;36.40
7129;DHT22;3606;52.930;8.644;2022-12-18T14:45:44;-2.40;99.90
7129;DHT22;3606;52.930;8.644;2022-12-18T14:50:37;-2.50;1.00
7129;DHT22;3606;52.930;8.644;2022-12-18T14:53:03;-2.60;99.90
7129;DHT22;3606;52.930;8.644;2022-12-18T14:55:29;-2.60;99.90
7129;DHT22;3606;52.930;8.644;2022-12-18T14:57:55;-2.60;99.90
7129;DHT22;3606;52.930;8.644;2022-12-18T15:00:23;-2.70;1.00
7129;DHT22;3606;52.930;8.644;2022-12-18T15:02:54;-2.70;1.00
7129;DHT22;3606;52.930;8.644;2022-12-18T15:05:28;-2.70;1.00
7129;DHT22;3606;52.930;8.644;2022-12-18T15:07:57;-2.70;1.00
7129;DHT22;3606;52.930;8.644;2022-12-18T15:10:26;-2.70;1.00
7129;DHT22;3606;52.930;8.644;2022-12-18T15:18:13;-2.80;1.00
7129;DHT22;3606;52.930;8.644;2022-12-18T15:20:49;-2.80;1.00
7129;DHT22;3606;52.930;8.644;2022-12-18T15:23:19;-2.70;99.90
7129;DHT22;3606;52.930;8.644;2022-12-18T15:25:47;-2.70;99.90
7129;DHT22;3606;52.930;8.644;2022-12-18T15:28:23;-2.70;74.60
7129;DHT22;3606;52.930;8.644;2022-12-18T15:34:25;-2.70;1.00
7129;DHT22;3606;52.930;8.644;2022-12-18T15:36:26;-2.70;1.00
7129;DHT22;3606;52.930;8.644;2022-12-18T15:38:53;-2.60;1.00
7129;DHT22;3606;52.930;8.644;2022-12-18T15:41:21;-2.60;1.00
7129;DHT22;3606;52.930;8.644;2022-12-18T15:43:48;-2.60;99.90
7129;DHT22;3606;52.930;8.644;2022-12-18T15:46:17;-2.60;99.90
7129;DHT22;3606;52.930;8.644;2022-12-18T15:48:45;-2.60;99.90
7129;DHT22;3606;52.930;8.644;2022-12-18T15:53:39;-2.50;92.20
7129;DHT22;3606;52.930;8.644;2022-12-18T15:56:13;-2.50;92.00
7129;DHT22;3606;52.930;8.644;2022-12-18T15:58:58;-2.50;1.00
7129;DHT22;3606;52.930;8.644;2022-12-18T16:01:26;-2.40;1.00
7129;DHT22;3606;52.930;8.644;2022-12-18T16:03:52;-2.40;1.00
7129;DHT22;3606;52.930;8.644;2022-12-18T16:06:19;-2.40;1.00
7129;DHT22;3606;52.930;8.644;2022-12-18T16:08:45;-2.40;1.00
7129;DHT22;3606;52.930;8.644;2022-12-18T16:11:23;-2.40;99.90
7129;DHT22;3606;52.930;8.644;2022-12-18T16:14:04;-2.30;99.90
7129;DHT22;3606;52.930;8.644;2022-12-18T16:16:30;-2.40;99.90
7129;DHT22;3606;52.930;8.644;2022-12-18T16:18:56;-2.40;99.90
7129;DHT22;3606;52.930;8.644;2022-12-18T16:21:21;-2.40;99.90
7129;DHT22;3606;52.930;8.644;2022-12-18T16:23:47;-2.30;99.90
7129;DHT22;3606;52.930;8.644;2022-12-18T16:26:12;-2.30;99.90
7129;DHT22;3606;52.930;8.644;2022-12-18T16:28:38;-2.30;1.00
7129;DHT22;3606;52.930;8.644;2022-12-18T16:31:04;-2.30;1.00
7129;DHT22;3606;52.930;8.644;2022-12-18T16:33:30;-2.30;1.00
7129;DHT22;3606;52.930;8.644;2022-12-18T16:35:55;-2.30;1.00
7129;DHT22;3606;52.930;8.644;2022-12-18T16:38:21;-2.30;1.00
7129;DHT22;3606;52.930;8.644;2022-12-18T16:40:46;-2.30;1.00
7129;DHT22;3606;52.930;8.644;2022-12-18T16:43:31;-2.30;1.00
7129;DHT22;3606;52.930;8.644;2022-12-18T16:45:58;-2.40;1.00
7129;DHT22;3606;52.930;8.644;2022-12-18T16:48:24;-2.30;1.00
7129;DHT22;3606;52.930;8.644;2022-12-18T16:50:49;-2.30;1.00
7129;DHT22;3606;52.930;8.644;2022-12-18T16:53:15;-2.30;1.00
7129;DHT22;3606;52.930;8.644;2022-12-18T16:55:40;-2.30;1.00
7129;DHT22;3606;52.930;8.644;2022-12-18T16:58:06;-2.30;1.00
7129;DHT22;3606;52.930;8.644;2022-12-18T17:00:31;-2.30;1.00
7129;DHT22;3606;52.930;8.644;2022-12-18T17:02:57;-2.30;1.00
7129;DHT22;3606;52.930;8.644;2022-12-18T17:05:23;-2.30;1.00
7129;DHT22;3606;52.930;8.644;2022-12-18T17:07:48;-2.30;1.00
7129;DHT22;3606;52.930;8.644;2022-12-18T17:10:14;-2.30;1.00
7129;DHT22;3606;52.930;8.644;2022-12-18T17:12:39;-2.30;1.00
7129;DHT22;3606;52.930;8.644;2022-12-18T17:15:05;-2.20;99.90
7129;DHT22;3606;52.930;8.644;2022-12-18T17:17:31;-2.20;99.90
7129;DHT22;3606;52.930;8.644;2022-12-18T17:19:57;-2.20;99.90
7129;DHT22;3606;52.930;8.644;2022-12-18T17:22:22;-2.20;99.90
7129;DHT22;3606;52.930;8.644;2022-12-18T17:24:48;-2.10;1.00
7129;DHT22;3606;52.930;8.644;2022-12-18T17:27:14;-2.10;1.00
7129;DHT22;3606;52.930;8.644;2022-12-18T17:29:40;-2.10;1.00
7129;DHT22;3606;52.930;8.644;2022-12-18T17:32:05;-2.10;1.00
7129;DHT22;3606;52.930;8.644;2022-12-18T17:34:31;-2.00;1.00
7129;DHT22;3606;52.930;8.644;2022-12-18T17:36:56;-2.10;1.00
7129;DHT22;3606;52.930;8.644;2022-12-18T17:39:22;-2.00;1.00
7129;DHT22;3606;52.930;8.644;2022-12-18T17:41:48;-2.00;1.00
7129;DHT22;3606;52.930;8.644;2022-12-18T17:44:15;-2.00;1.00
7129;DHT22;3606;52.930;8.644;2022-12-18T17:46:41;-2.00;1.00
7129;DHT22;3606;52.930;8.644;2022-12-18T17:49:06;-2.00;1.00
7129;DHT22;3606;52.930;8.644;2022-12-18T17:51:32;-2.00;1.00
7129;DHT22;3606;52.930;8.644;2022-12-18T17:53:58;-2.00;1.00
7129;DHT22;3606;52.930;8.644;2022-12-18T17:56:24;-2.00;1.00
7129;DHT22;3606;52.930;8.644;2022-12-18T17:58:50;-2.00;99.90
7129;DHT22;3606;52.930;8.644;2022-12-18T18:01:21;-2.00;1.00
7129;DHT22;3606;52.930;8.644;2022-12-18T18:03:47;-2.00;99.90
7129;DHT22;3606;52.930;8.644;2022-12-18T18:06:14;-2.00;99.90
7129;DHT22;3606;52.930;8.644;2022-12-18T18:08:39;-2.00;99.90
7129;DHT22;3606;52.930;8.644;2022-12-18T18:11:07;-2.00;99.90
7129;DHT22;3606;52.930;8.644;2022-12-18T18:13:52;-2.00;99.90
7129;DHT22;3606;52.930;8.644;2022-12-18T18:16:38;-2.00;99.90
7129;DHT22;3606;52.930;8.644;2022-12-18T18:19:07;-2.00;1.00